sensor_id;sensor_type;location;lat;lon;timestamp;P1;durP1;ratioP1;P2;durP2;ratioP2
6089;SDS011;3073;42.660;23.316;2023-11-19T00:00:25;5.20;;;2.30;;
6089;SDS011;3073;42.660;23.316;2023-11-19T00:02:52;2.63;;;2.43;;
6089;SDS011;3073;42.660;23.316;2023-11-19T00:05:20;4.87;;;2.57;;
6089;SDS011;3073;42.660;23.316;2023-11-19T00:07:47;3.27;;;2.30;;
6089;SDS011;3073;42.660;23.316;2023-11-19T00:10:15;4.70;;;2.10;;
6089;SDS011;3073;42.660;23.316;2023-11-19T00:12:44;2.80;;;2.60;;
6089;SDS011;3073;42.660;23.316;2023-11-19T00:15:12;7.10;;;3.00;;
6089;SDS011;3073;42.660;23.316;2023-11-19T00:17:39;2.80;;;2.60;;
6089;SDS011;3073;42.660;23.316;2023-11-19T00:20:10;2.97;;;2.37;;
6089;SDS011;3073;42.660;23.316;2023-11-19T00:22:38;2.83;;;2.43;;
6089;SDS011;3073;42.660;23.316;2023-11-19T00:25:07;4.77;;;2.27;;
6089;SDS011;3073;42.660;23.316;2023-11-19T00:27:34;2.63;;;2.43;;
6089;SDS011;3073;42.660;23.316;2023-11-19T00:30:02;2.33;;;2.13;;
6089;SDS011;3073;42.660;23.316;2023-11-19T00:32:30;2.60;;;2.07;;
6089;SDS011;3073;42.660;23.316;2023-11-19T00:34:57;3.60;;;2.53;;
6089;SDS011;3073;42.660;23.316;2023-11-19T00:37:24;2.40;;;2.20;;
6089;SDS011;3073;42.660;23.316;2023-11-19T00:39:53;2.80;;;2.33;;
6089;SDS011;3073;42.660;23.316;2023-11-19T00:42:21;2.50;;;2.27;;
6089;SDS011;3073;42.660;23.316;2023-11-19T00:44:49;2.10;;;1.90;;
6089;SDS011;3073;42.660;23.316;2023-11-19T00:47:16;2.83;;;2.50;;
6089;SDS011;3073;42.660;23.316;2023-11-19T00:49:45;2.90;;;2.30;;
6089;SDS011;3073;42.660;23.316;2023-11-19T00:52:13;2.57;;;2.37;;
6089;SDS011;3073;42.660;23.316;2023-11-19T00:54:40;3.00;;;2.70;;
6089;SDS011;3073;42.660;23.316;2023-11-19T00:57:09;3.67;;;2.57;;
6089;SDS011;3073;42.660;23.316;2023-11-19T00:59:37;2.50;;;2.30;;
6089;SDS011;3073;42.660;23.316;2023-11-19T01:02:03;4.57;;;2.77;;
6089;SDS011;3073;42.660;23.316;2023-11-19T01:04:33;2.13;;;1.93;;
6089;SDS011;3073;42.660;23.316;2023-11-19T01:07:01;5.57;;;3.40;;
6089;SDS011;3073;42.660;23.316;2023-11-19T01:09:29;2.97;;;2.53;;
6089;SDS011;3073;42.660;23.316;2023-11-19T01:11:59;2.60;;;2.40;;
6089;SDS011;3073;42.660;23.316;2023-11-19T01:14:28;2.63;;;2.33;;
6089;SDS011;3073;42.660;23.316;2023-11-19T01:16:55;2.70;;;2.27;;
6089;SDS011;3073;42.660;23.316;2023-11-19T01:19:22;2.10;;;1.77;;
6089;SDS011;3073;42.660;23.316;2023-11-19T01:21:50;2.67;;;2.03;;
6089;SDS011;3073;42.660;23.316;2023-11-19T01:24:17;2.47;;;2.27;;
6089;SDS011;3073;42.660;23.316;2023-11-19T01:26:44;4.20;;;2.00;;
6089;SDS011;3073;42.660;23.316;2023-11-19T01:29:11;3.07;;;2.33;;
6089;SDS011;3073;42.660;23.316;2023-11-19T01:31:41;3.53;;;2.67;;
6089;SDS011;3073;42.660;23.316;2023-11-19T01:34:08;2.83;;;2.20;;
6089;SDS011;3073;42.660;23.316;2023-11-19T01:36:36;2.47;;;2.27;;
6089;SDS011;3073;42.660;23.316;2023-11-19T01:39:04;2.03;;;1.83;;
6089;SDS011;3073;42.660;23.316;2023-11-19T01:41:33;2.30;;;1.77;;
6089;SDS011;3073;42.660;23.316;2023-11-19T01:44:01;1.83;;;1.70;;
6089;SDS011;3073;42.660;23.316;2023-11-19T01:46:28;2.03;;;1.83;;
6089;SDS011;3073;42.660;23.316;2023-11-19T01:48:59;2.73;;;2.30;;
6089;SDS011;3073;42.660;23.316;2023-11-19T01:51:27;3.27;;;2.67;;
6089;SDS011;3073;42.660;23.316;2023-11-19T01:53:54;2.57;;;2.30;;
6089;SDS011;3073;42.660;23.316;2023-11-19T01:56:21;2.33;;;1.90;;
6089;SDS011;3073;42.660;23.316;2023-11-19T01:58:49;1.77;;;1.67;;
6089;SDS011;3073;42.660;23.316;2023-11-19T02:01:16;2.70;;;1.83;;
6089;SDS011;3073;42.660;23.316;2023-11-19T02:03:44;2.23;;;2.03;;
6089;SDS011;3073;42.660;23.316;2023-11-19T02:06:13;3.20;;;1.73;;
6089;SDS011;3073;42.660;23.316;2023-11-19T02:08:42;2.50;;;2.30;;
6089;SDS011;3073;42.660;23.316;2023-11-19T02:11:09;3.20;;;2.27;;
6089;SDS011;3073;42.660;23.316;2023-11-19T02:13:37;1.73;;;1.50;;
6089;SDS011;3073;42.660;23.316;2023-11-19T02:16:06;3.50;;;2.13;;
6089;SDS011;3073;42.660;23.316;2023-11-19T02:18:36;2.77;;;2.00;;
6089;SDS011;3073;42.660;23.316;2023-11-19T02:21:03;2.57;;;1.70;;
6089;SDS011;3073;42.660;23.316;2023-11-19T02:23:32;2.23;;;1.80;;
6089;SDS011;3073;42.660;23.316;2023-11-19T02:26:03;4.07;;;2.17;;
6089;SDS011;3073;42.660;23.316;2023-11-19T02:28:40;2.30;;;1.97;;
6089;SDS011;3073;42.660;23.316;2023-11-19T02:31:08;7.33;;;2.00;;
6089;SDS011;3073;42.660;23.316;2023-11-19T02:33:35;5.40;;;2.20;;
6089;SDS011;3073;42.660;23.316;2023-11-19T02:36:02;2.80;;;2.00;;
6089;SDS011;3073;42.660;23.316;2023-11-19T02:38:30;3.33;;;2.17;;
6089;SDS011;3073;42.660;23.316;2023-11-19T02:40:57;2.53;;;2.33;;
6089;SDS011;3073;42.660;23.316;2023-11-19T02:43:23;2.70;;;1.83;;
6089;SDS011;3073;42.660;23.316;2023-11-19T02:45:52;14.23;;;2.10;;
6089;SDS011;3073;42.660;23.316;2023-11-19T02:48:20;2.73;;;2.27;;
6089;SDS011;3073;42.660;23.316;2023-11-19T02:50:47;6.40;;;1.67;;
6089;SDS011;3073;42.660;23.316;2023-11-19T02:53:15;3.07;;;2.13;;
6089;SDS011;3073;42.660;23.316;2023-11-19T02:55:42;2.50;;;2.30;;
6089;SDS011;3073;42.660;23.316;2023-11-19T02:58:13;2.23;;;2.00;;
6089;SDS011;3073;42.660;23.316;2023-11-19T03:00:48;7.37;;;2.10;;
6089;SDS011;3073;42.660;23.316;2023-11-19T03:03:23;11.93;;;2.33;;
6089;SDS011;3073;42.660;23.316;2023-11-19T03:05:56;2.67;;;1.87;;
6089;SDS011;3073;42.660;23.316;2023-11-19T03:08:23;2.20;;;2.00;;
6089;SDS011;3073;42.660;23.316;2023-11-19T03:10:50;2.77;;;1.87;;
6089;SDS011;3073;42.660;23.316;2023-11-19T03:13:16;2.10;;;1.80;;
6089;SDS011;3073;42.660;23.316;2023-11-19T03:15:43;2.47;;;1.73;;
6089;SDS011;3073;42.660;23.316;2023-11-19T03:18:11;2.70;;;2.23;;
6089;SDS011;3073;42.660;23.316;2023-11-19T03:20:39;3.27;;;2.00;;
6089;SDS011;3073;42.660;23.316;2023-11-19T03:23:06;3.03;;;2.10;;
6089;SDS011;3073;42.660;23.316;2023-11-19T03:25:33;3.00;;;2.17;;
6089;SDS011;3073;42.660;23.316;2023-11-19T03:28:01;3.23;;;2.27;;
6089;SDS011;3073;42.660;23.316;2023-11-19T03:30:29;3.23;;;2.40;;
6089;SDS011;3073;42.660;23.316;2023-11-19T03:32:56;2.37;;;1.87;;
6089;SDS011;3073;42.660;23.316;2023-11-19T03:35:23;2.47;;;1.83;;
6089;SDS011;3073;42.660;23.316;2023-11-19T03:37:52;1.80;;;1.60;;
6089;SDS011;3073;42.660;23.316;2023-11-19T03:40:19;3.10;;;2.00;;
6089;SDS011;3073;42.660;23.316;2023-11-19T03:42:46;2.47;;;2.27;;
6089;SDS011;3073;42.660;23.316;2023-11-19T03:45:13;2.60;;;2.10;;
6089;SDS011;3073;42.660;23.316;2023-11-19T03:47:41;2.00;;;1.80;;
6089;SDS011;3073;42.660;23.316;2023-11-19T03:50:07;2.33;;;2.13;;
6089;SDS011;3073;42.660;23.316;2023-11-19T03:52:35;7.93;;;2.30;;
6089;SDS011;3073;42.660;23.316;2023-11-19T03:55:04;2.37;;;1.90;;
6089;SDS011;3073;42.660;23.316;2023-11-19T03:57:33;2.67;;;1.87;;
6089;SDS011;3073;42.660;23.316;2023-11-19T04:00:00;2.00;;;1.80;;
6089;SDS011;3073;42.660;23.316;2023-11-19T04:02:33;2.20;;;2.00;;
6089;SDS011;3073;42.660;23.316;2023-11-19T04:05:00;2.93;;;2.20;;
6089;SDS011;3073;42.660;23.316;2023-11-19T04:07:27;2.27;;;2.07;;
6089;SDS011;3073;42.660;23.316;2023-11-19T04:09:53;2.17;;;1.97;;
6089;SDS011;3073;42.660;23.316;2023-11-19T04:12:22;8.20;;;2.60;;
6089;SDS011;3073;42.660;23.316;2023-11-19T04:14:48;2.33;;;2.13;;
6089;SDS011;3073;42.660;23.316;2023-11-19T04:17:15;2.77;;;2.37;;
6089;SDS011;3073;42.660;23.316;2023-11-19T04:19:42;2.37;;;2.00;;
6089;SDS011;3073;42.660;23.316;2023-11-19T04:22:09;3.47;;;2.03;;
6089;SDS011;3073;42.660;23.316;2023-11-19T04:24:36;6.33;;;2.30;;
6089;SDS011;3073;42.660;23.316;2023-11-19T04:27:03;2.90;;;2.10;;
6089;SDS011;3073;42.660;23.316;2023-11-19T04:29:33;2.37;;;2.17;;
6089;SDS011;3073;42.660;23.316;2023-11-19T04:31:59;2.43;;;1.83;;
6089;SDS011;3073;42.660;23.316;2023-11-19T04:34:26;9.10;;;2.00;;
6089;SDS011;3073;42.660;23.316;2023-11-19T04:36:53;2.47;;;1.90;;
6089;SDS011;3073;42.660;23.316;2023-11-19T04:39:20;3.17;;;2.17;;
6089;SDS011;3073;42.660;23.316;2023-11-19T04:41:48;2.87;;;2.20;;
6089;SDS011;3073;42.660;23.316;2023-11-19T04:44:15;3.07;;;2.30;;
6089;SDS011;3073;42.660;23.316;2023-11-19T04:46:44;2.67;;;2.33;;
6089;SDS011;3073;42.660;23.316;2023-11-19T04:49:11;2.87;;;2.20;;
6089;SDS011;3073;42.660;23.316;2023-11-19T04:51:39;2.33;;;1.90;;
6089;SDS011;3073;42.660;23.316;2023-11-19T04:54:07;2.07;;;1.87;;
6089;SDS011;3073;42.660;23.316;2023-11-19T04:56:34;2.07;;;1.80;;
6089;SDS011;3073;42.660;23.316;2023-11-19T04:59:01;3.30;;;2.57;;
6089;SDS011;3073;42.660;23.316;2023-11-19T05:01:28;4.00;;;2.40;;
6089;SDS011;3073;42.660;23.316;2023-11-19T05:03:57;4.20;;;2.80;;
6089;SDS011;3073;42.660;23.316;2023-11-19T05:06:25;2.47;;;2.17;;
6089;SDS011;3073;42.660;23.316;2023-11-19T05:08:53;2.13;;;1.93;;
6089;SDS011;3073;42.660;23.316;2023-11-19T05:11:20;3.20;;;2.47;;
6089;SDS011;3073;42.660;23.316;2023-11-19T05:13:49;1.83;;;1.50;;
6089;SDS011;3073;42.660;23.316;2023-11-19T05:16:16;3.77;;;2.83;;
6089;SDS011;3073;42.660;23.316;2023-11-19T05:18:44;2.67;;;2.03;;
6089;SDS011;3073;42.660;23.316;2023-11-19T05:21:12;2.40;;;2.20;;
6089;SDS011;3073;42.660;23.316;2023-11-19T05:23:39;3.03;;;1.80;;
6089;SDS011;3073;42.660;23.316;2023-11-19T05:26:07;2.60;;;2.40;;
6089;SDS011;3073;42.660;23.316;2023-11-19T05:28:37;2.53;;;1.97;;
6089;SDS011;3073;42.660;23.316;2023-11-19T05:31:04;3.00;;;2.70;;
6089;SDS011;3073;42.660;23.316;2023-11-19T05:33:32;2.43;;;1.70;;
6089;SDS011;3073;42.660;23.316;2023-11-19T05:35:59;3.37;;;2.40;;
6089;SDS011;3073;42.660;23.316;2023-11-19T05:38:30;2.30;;;2.03;;
6089;SDS011;3073;42.660;23.316;2023-11-19T05:40:56;2.30;;;1.70;;
6089;SDS011;3073;42.660;23.316;2023-11-19T05:43:23;2.30;;;1.80;;
6089;SDS011;3073;42.660;23.316;2023-11-19T05:45:50;3.00;;;2.20;;
6089;SDS011;3073;42.660;23.316;2023-11-19T05:48:17;3.53;;;2.27;;
6089;SDS011;3073;42.660;23.316;2023-11-19T05:50:45;2.27;;;2.07;;
6089;SDS011;3073;42.660;23.316;2023-11-19T05:53:15;5.10;;;2.50;;
6089;SDS011;3073;42.660;23.316;2023-11-19T05:55:45;3.33;;;2.77;;
6089;SDS011;3073;42.660;23.316;2023-11-19T05:58:20;1.97;;;1.70;;
6089;SDS011;3073;42.660;23.316;2023-11-19T06:00:54;2.97;;;2.30;;
6089;SDS011;3073;42.660;23.316;2023-11-19T06:03:22;5.40;;;2.50;;
6089;SDS011;3073;42.660;23.316;2023-11-19T06:05:50;3.17;;;2.53;;
6089;SDS011;3073;42.660;23.316;2023-11-19T06:08:20;2.73;;;2.00;;
6089;SDS011;3073;42.660;23.316;2023-11-19T06:10:49;2.70;;;2.47;;
6089;SDS011;3073;42.660;23.316;2023-11-19T06:13:17;4.70;;;3.00;;
6089;SDS011;3073;42.660;23.316;2023-11-19T06:15:45;3.33;;;2.20;;
6089;SDS011;3073;42.660;23.316;2023-11-19T06:18:12;3.43;;;2.30;;
6089;SDS011;3073;42.660;23.316;2023-11-19T06:20:39;3.20;;;2.43;;
6089;SDS011;3073;42.660;23.316;2023-11-19T06:23:07;3.00;;;2.20;;
6089;SDS011;3073;42.660;23.316;2023-11-19T06:25:34;4.57;;;2.43;;
6089;SDS011;3073;42.660;23.316;2023-11-19T06:28:02;3.20;;;2.67;;
6089;SDS011;3073;42.660;23.316;2023-11-19T06:30:29;3.03;;;2.20;;
6089;SDS011;3073;42.660;23.316;2023-11-19T06:32:57;4.60;;;2.70;;
6089;SDS011;3073;42.660;23.316;2023-11-19T06:35:25;2.40;;;2.20;;
6089;SDS011;3073;42.660;23.316;2023-11-19T06:37:52;2.80;;;2.40;;
6089;SDS011;3073;42.660;23.316;2023-11-19T06:40:20;4.40;;;2.87;;
6089;SDS011;3073;42.660;23.316;2023-11-19T06:42:47;2.90;;;2.10;;
6089;SDS011;3073;42.660;23.316;2023-11-19T06:45:16;3.63;;;2.70;;
6089;SDS011;3073;42.660;23.316;2023-11-19T06:47:42;2.67;;;2.20;;
6089;SDS011;3073;42.660;23.316;2023-11-19T06:50:10;3.50;;;2.33;;
6089;SDS011;3073;42.660;23.316;2023-11-19T06:52:40;4.10;;;2.90;;
6089;SDS011;3073;42.660;23.316;2023-11-19T06:55:07;2.63;;;2.33;;
6089;SDS011;3073;42.660;23.316;2023-11-19T06:57:35;4.33;;;2.40;;
6089;SDS011;3073;42.660;23.316;2023-11-19T07:00:02;3.80;;;2.10;;
6089;SDS011;3073;42.660;23.316;2023-11-19T07:02:32;3.40;;;2.77;;
6089;SDS011;3073;42.660;23.316;2023-11-19T07:04:59;5.53;;;2.47;;
6089;SDS011;3073;42.660;23.316;2023-11-19T07:07:26;3.50;;;2.67;;
6089;SDS011;3073;42.660;23.316;2023-11-19T07:09:54;2.90;;;2.37;;
6089;SDS011;3073;42.660;23.316;2023-11-19T07:12:23;4.23;;;2.93;;
6089;SDS011;3073;42.660;23.316;2023-11-19T07:14:51;2.87;;;2.33;;
6089;SDS011;3073;42.660;23.316;2023-11-19T07:17:20;3.30;;;3.00;;
6089;SDS011;3073;42.660;23.316;2023-11-19T07:19:49;2.60;;;2.20;;
6089;SDS011;3073;42.660;23.316;2023-11-19T07:22:17;3.13;;;2.80;;
6089;SDS011;3073;42.660;23.316;2023-11-19T07:24:44;3.10;;;2.30;;
6089;SDS011;3073;42.660;23.316;2023-11-19T07:27:11;3.30;;;2.80;;
6089;SDS011;3073;42.660;23.316;2023-11-19T07:29:38;3.10;;;2.53;;
6089;SDS011;3073;42.660;23.316;2023-11-19T07:32:06;2.67;;;2.37;;
6089;SDS011;3073;42.660;23.316;2023-11-19T07:34:34;3.93;;;2.87;;
6089;SDS011;3073;42.660;23.316;2023-11-19T07:37:03;5.13;;;2.60;;
6089;SDS011;3073;42.660;23.316;2023-11-19T07:39:30;5.33;;;1.97;;
6089;SDS011;3073;42.660;23.316;2023-11-19T07:41:57;3.33;;;2.40;;
6089;SDS011;3073;42.660;23.316;2023-11-19T07:44:24;3.53;;;2.43;;
6089;SDS011;3073;42.660;23.316;2023-11-19T07:46:52;3.83;;;2.90;;
6089;SDS011;3073;42.660;23.316;2023-11-19T07:49:19;3.30;;;2.40;;
6089;SDS011;3073;42.660;23.316;2023-11-19T07:51:46;3.70;;;2.80;;
6089;SDS011;3073;42.660;23.316;2023-11-19T07:54:15;3.47;;;3.17;;
6089;SDS011;3073;42.660;23.316;2023-11-19T07:56:41;2.73;;;2.53;;
6089;SDS011;3073;42.660;23.316;2023-11-19T07:59:10;4.93;;;2.80;;
6089;SDS011;3073;42.660;23.316;2023-11-19T08:01:36;4.30;;;2.77;;
6089;SDS011;3073;42.660;23.316;2023-11-19T08:04:04;3.23;;;2.40;;
6089;SDS011;3073;42.660;23.316;2023-11-19T08:06:31;7.23;;;2.97;;
6089;SDS011;3073;42.660;23.316;2023-11-19T08:08:59;4.90;;;3.37;;
6089;SDS011;3073;42.660;23.316;2023-11-19T08:11:28;3.27;;;2.97;;
6089;SDS011;3073;42.660;23.316;2023-11-19T08:13:55;2.93;;;2.63;;
6089;SDS011;3073;42.660;23.316;2023-11-19T08:16:22;4.23;;;3.03;;
6089;SDS011;3073;42.660;23.316;2023-11-19T08:18:51;3.70;;;2.53;;
6089;SDS011;3073;42.660;23.316;2023-11-19T08:21:19;15.40;;;3.23;;
6089;SDS011;3073;42.660;23.316;2023-11-19T08:23:47;3.40;;;3.10;;
6089;SDS011;3073;42.660;23.316;2023-11-19T08:26:15;4.00;;;2.93;;
6089;SDS011;3073;42.660;23.316;2023-11-19T08:28:43;4.03;;;2.93;;
6089;SDS011;3073;42.660;23.316;2023-11-19T08:31:10;3.23;;;2.83;;
6089;SDS011;3073;42.660;23.316;2023-11-19T08:33:37;3.30;;;2.30;;
6089;SDS011;3073;42.660;23.316;2023-11-19T08:36:04;4.13;;;3.20;;
6089;SDS011;3073;42.660;23.316;2023-11-19T08:38:31;4.60;;;3.43;;
6089;SDS011;3073;42.660;23.316;2023-11-19T08:40:58;4.50;;;2.87;;
6089;SDS011;3073;42.660;23.316;2023-11-19T08:43:26;3.80;;;3.40;;
6089;SDS011;3073;42.660;23.316;2023-11-19T08:45:54;2.53;;;2.17;;
6089;SDS011;3073;42.660;23.316;2023-11-19T08:48:22;3.93;;;3.20;;
6089;SDS011;3073;42.660;23.316;2023-11-19T08:50:51;3.20;;;2.77;;
6089;SDS011;3073;42.660;23.316;2023-11-19T08:53:17;4.33;;;2.87;;
6089;SDS011;3073;42.660;23.316;2023-11-19T08:55:44;2.90;;;2.50;;
6089;SDS011;3073;42.660;23.316;2023-11-19T08:58:11;5.90;;;3.17;;
6089;SDS011;3073;42.660;23.316;2023-11-19T09:00:38;3.10;;;2.43;;
6089;SDS011;3073;42.660;23.316;2023-11-19T09:03:07;3.77;;;3.23;;
6089;SDS011;3073;42.660;23.316;2023-11-19T09:05:34;5.23;;;2.57;;
6089;SDS011;3073;42.660;23.316;2023-11-19T09:08:02;3.87;;;3.03;;
6089;SDS011;3073;42.660;23.316;2023-11-19T09:10:29;2.57;;;2.30;;
6089;SDS011;3073;42.660;23.316;2023-11-19T09:12:56;3.77;;;3.00;;
6089;SDS011;3073;42.660;23.316;2023-11-19T09:15:23;3.43;;;2.80;;
6089;SDS011;3073;42.660;23.316;2023-11-19T09:17:50;3.30;;;2.93;;
6089;SDS011;3073;42.660;23.316;2023-11-19T09:20:18;6.10;;;3.60;;
6089;SDS011;3073;42.660;23.316;2023-11-19T09:22:45;3.43;;;3.13;;
6089;SDS011;3073;42.660;23.316;2023-11-19T09:25:12;5.40;;;2.50;;
6089;SDS011;3073;42.660;23.316;2023-11-19T09:27:42;3.00;;;2.60;;
6089;SDS011;3073;42.660;23.316;2023-11-19T09:30:09;3.23;;;2.80;;
6089;SDS011;3073;42.660;23.316;2023-11-19T09:32:36;3.30;;;2.60;;
6089;SDS011;3073;42.660;23.316;2023-11-19T09:35:04;3.93;;;2.63;;
6089;SDS011;3073;42.660;23.316;2023-11-19T09:37:33;4.80;;;2.80;;
6089;SDS011;3073;42.660;23.316;2023-11-19T09:40:00;3.50;;;2.63;;
6089;SDS011;3073;42.660;23.316;2023-11-19T09:42:27;3.07;;;2.77;;
6089;SDS011;3073;42.660;23.316;2023-11-19T09:44:54;3.50;;;2.87;;
6089;SDS011;3073;42.660;23.316;2023-11-19T09:47:24;7.83;;;3.10;;
6089;SDS011;3073;42.660;23.316;2023-11-19T09:49:54;5.10;;;3.17;;
6089;SDS011;3073;42.660;23.316;2023-11-19T09:52:22;2.73;;;2.37;;
6089;SDS011;3073;42.660;23.316;2023-11-19T09:54:51;3.50;;;3.20;;
6089;SDS011;3073;42.660;23.316;2023-11-19T09:57:18;3.97;;;2.70;;
6089;SDS011;3073;42.660;23.316;2023-11-19T09:59:48;4.10;;;3.17;;
6089;SDS011;3073;42.660;23.316;2023-11-19T10:02:16;5.53;;;2.47;;
6089;SDS011;3073;42.660;23.316;2023-11-19T10:04:44;3.87;;;2.60;;
6089;SDS011;3073;42.660;23.316;2023-11-19T10:07:13;3.13;;;2.43;;
6089;SDS011;3073;42.660;23.316;2023-11-19T10:09:40;5.83;;;2.63;;
6089;SDS011;3073;42.660;23.316;2023-11-19T10:12:08;3.60;;;2.83;;
6089;SDS011;3073;42.660;23.316;2023-11-19T10:14:35;2.77;;;2.50;;
6089;SDS011;3073;42.660;23.316;2023-11-19T10:17:06;2.93;;;2.63;;
6089;SDS011;3073;42.660;23.316;2023-11-19T10:19:34;3.17;;;2.87;;
6089;SDS011;3073;42.660;23.316;2023-11-19T10:22:03;3.60;;;2.83;;
6089;SDS011;3073;42.660;23.316;2023-11-19T10:24:34;3.37;;;2.90;;
6089;SDS011;3073;42.660;23.316;2023-11-19T10:27:04;2.37;;;2.13;;
6089;SDS011;3073;42.660;23.316;2023-11-19T10:29:37;3.17;;;2.43;;
6089;SDS011;3073;42.660;23.316;2023-11-19T10:32:04;4.73;;;2.20;;
6089;SDS011;3073;42.660;23.316;2023-11-19T10:34:31;2.67;;;2.47;;
6089;SDS011;3073;42.660;23.316;2023-11-19T10:36:58;3.10;;;2.67;;
6089;SDS011;3073;42.660;23.316;2023-11-19T10:39:26;3.40;;;2.80;;
6089;SDS011;3073;42.660;23.316;2023-11-19T10:42:18;2.83;;;2.20;;
6089;SDS011;3073;42.660;23.316;2023-11-19T10:44:46;2.60;;;2.20;;
6089;SDS011;3073;42.660;23.316;2023-11-19T10:47:13;2.97;;;2.43;;
6089;SDS011;3073;42.660;23.316;2023-11-19T10:49:42;2.63;;;2.43;;
6089;SDS011;3073;42.660;23.316;2023-11-19T10:52:11;4.20;;;2.63;;
6089;SDS011;3073;42.660;23.316;2023-11-19T10:54:43;2.63;;;2.27;;
6089;SDS011;3073;42.660;23.316;2023-11-19T10:57:11;2.97;;;2.50;;
6089;SDS011;3073;42.660;23.316;2023-11-19T10:59:43;2.63;;;2.43;;
6089;SDS011;3073;42.660;23.316;2023-11-19T11:02:14;3.03;;;2.23;;
6089;SDS011;3073;42.660;23.316;2023-11-19T11:04:45;2.60;;;2.10;;
6089;SDS011;3073;42.660;23.316;2023-11-19T11:07:14;2.93;;;2.27;;
6089;SDS011;3073;42.660;23.316;2023-11-19T11:09:43;2.80;;;2.20;;
6089;SDS011;3073;42.660;23.316;2023-11-19T11:12:11;2.70;;;2.23;;
6089;SDS011;3073;42.660;23.316;2023-11-19T11:14:39;3.27;;;2.57;;
6089;SDS011;3073;42.660;23.316;2023-11-19T11:17:09;2.33;;;2.13;;
6089;SDS011;3073;42.660;23.316;2023-11-19T11:19:39;3.90;;;2.40;;
6089;SDS011;3073;42.660;23.316;2023-11-19T11:22:08;2.60;;;2.00;;
6089;SDS011;3073;42.660;23.316;2023-11-19T11:27:46;2.83;;;2.03;;
6089;SDS011;3073;42.660;23.316;2023-11-19T11:30:25;2.33;;;2.13;;
6089;SDS011;3073;42.660;23.316;2023-11-19T11:33:03;3.30;;;2.30;;
6089;SDS011;3073;42.660;23.316;2023-11-19T11:35:44;3.47;;;2.20;;
6089;SDS011;3073;42.660;23.316;2023-11-19T11:38:21;3.33;;;2.37;;
6089;SDS011;3073;42.660;23.316;2023-11-19T11:43:45;3.70;;;2.37;;
6089;SDS011;3073;42.660;23.316;2023-11-19T11:49:27;4.50;;;2.33;;
6089;SDS011;3073;42.660;23.316;2023-11-19T11:51:58;3.10;;;2.40;;
6089;SDS011;3073;42.660;23.316;2023-11-19T11:54:26;2.93;;;2.47;;
6089;SDS011;3073;42.660;23.316;2023-11-19T11:59:47;4.53;;;2.33;;
6089;SDS011;3073;42.660;23.316;2023-11-19T12:02:15;4.10;;;2.97;;
6089;SDS011;3073;42.660;23.316;2023-11-19T12:04:47;3.80;;;2.60;;
6089;SDS011;3073;42.660;23.316;2023-11-19T12:07:16;3.00;;;2.53;;
6089;SDS011;3073;42.660;23.316;2023-11-19T12:09:47;3.07;;;1.93;;
6089;SDS011;3073;42.660;23.316;2023-11-19T12:12:18;2.63;;;2.23;;
6089;SDS011;3073;42.660;23.316;2023-11-19T12:14:59;4.43;;;2.10;;
6089;SDS011;3073;42.660;23.316;2023-11-19T12:17:37;4.50;;;2.50;;
6089;SDS011;3073;42.660;23.316;2023-11-19T12:20:16;3.30;;;2.80;;
6089;SDS011;3073;42.660;23.316;2023-11-19T12:22:43;7.97;;;2.70;;
6089;SDS011;3073;42.660;23.316;2023-11-19T12:25:12;2.83;;;2.17;;
6089;SDS011;3073;42.660;23.316;2023-11-19T12:27:39;2.67;;;2.00;;
6089;SDS011;3073;42.660;23.316;2023-11-19T12:30:07;4.03;;;2.70;;
6089;SDS011;3073;42.660;23.316;2023-11-19T12:32:38;3.50;;;2.47;;
6089;SDS011;3073;42.660;23.316;2023-11-19T12:35:07;4.80;;;2.27;;
6089;SDS011;3073;42.660;23.316;2023-11-19T12:37:41;2.97;;;1.97;;
6089;SDS011;3073;42.660;23.316;2023-11-19T12:40:12;2.87;;;2.43;;
6089;SDS011;3073;42.660;23.316;2023-11-19T12:42:42;2.50;;;2.10;;
6089;SDS011;3073;42.660;23.316;2023-11-19T12:45:09;4.70;;;2.37;;
6089;SDS011;3073;42.660;23.316;2023-11-19T12:47:37;3.30;;;2.53;;
6089;SDS011;3073;42.660;23.316;2023-11-19T12:50:05;4.13;;;3.07;;
6089;SDS011;3073;42.660;23.316;2023-11-19T12:52:33;3.87;;;3.30;;
6089;SDS011;3073;42.660;23.316;2023-11-19T12:55:01;3.90;;;3.43;;
6089;SDS011;3073;42.660;23.316;2023-11-19T12:57:38;5.17;;;3.43;;
6089;SDS011;3073;42.660;23.316;2023-11-19T13:00:06;5.43;;;3.77;;
6089;SDS011;3073;42.660;23.316;2023-11-19T13:02:46;3.50;;;3.20;;
6089;SDS011;3073;42.660;23.316;2023-11-19T13:05:24;4.70;;;3.43;;
6089;SDS011;3073;42.660;23.316;2023-11-19T13:08:02;3.70;;;3.00;;
6089;SDS011;3073;42.660;23.316;2023-11-19T13:10:32;8.80;;;3.37;;
6089;SDS011;3073;42.660;23.316;2023-11-19T13:13:03;4.37;;;2.97;;
6089;SDS011;3073;42.660;23.316;2023-11-19T13:15:31;5.80;;;3.20;;
6089;SDS011;3073;42.660;23.316;2023-11-19T13:17:59;3.50;;;3.10;;
6089;SDS011;3073;42.660;23.316;2023-11-19T13:20:25;4.07;;;3.30;;
6089;SDS011;3073;42.660;23.316;2023-11-19T13:22:53;4.67;;;3.63;;
6089;SDS011;3073;42.660;23.316;2023-11-19T13:25:21;6.10;;;3.57;;
6089;SDS011;3073;42.660;23.316;2023-11-19T13:27:49;6.70;;;3.47;;
6089;SDS011;3073;42.660;23.316;2023-11-19T13:30:16;4.27;;;3.40;;
6089;SDS011;3073;42.660;23.316;2023-11-19T13:32:44;5.27;;;4.03;;
6089;SDS011;3073;42.660;23.316;2023-11-19T13:35:11;3.17;;;2.53;;
6089;SDS011;3073;42.660;23.316;2023-11-19T13:37:38;2.90;;;2.27;;
6089;SDS011;3073;42.660;23.316;2023-11-19T13:40:06;4.37;;;2.50;;
6089;SDS011;3073;42.660;23.316;2023-11-19T13:42:35;3.57;;;2.47;;
6089;SDS011;3073;42.660;23.316;2023-11-19T13:45:08;2.90;;;2.07;;
6089;SDS011;3073;42.660;23.316;2023-11-19T13:47:37;2.37;;;1.63;;
6089;SDS011;3073;42.660;23.316;2023-11-19T13:50:06;2.40;;;2.03;;
6089;SDS011;3073;42.660;23.316;2023-11-19T13:52:34;2.10;;;1.80;;
6089;SDS011;3073;42.660;23.316;2023-11-19T13:55:03;3.07;;;2.40;;
6089;SDS011;3073;42.660;23.316;2023-11-19T13:57:31;3.47;;;2.50;;
6089;SDS011;3073;42.660;23.316;2023-11-19T13:59:59;5.47;;;2.70;;
6089;SDS011;3073;42.660;23.316;2023-11-19T14:02:29;5.00;;;2.47;;
6089;SDS011;3073;42.660;23.316;2023-11-19T14:04:56;2.77;;;1.90;;
6089;SDS011;3073;42.660;23.316;2023-11-19T14:07:23;2.63;;;1.83;;
6089;SDS011;3073;42.660;23.316;2023-11-19T14:09:50;3.13;;;2.37;;
6089;SDS011;3073;42.660;23.316;2023-11-19T14:12:16;2.17;;;1.73;;
6089;SDS011;3073;42.660;23.316;2023-11-19T14:14:44;3.70;;;2.33;;
6089;SDS011;3073;42.660;23.316;2023-11-19T14:17:10;3.27;;;2.53;;
6089;SDS011;3073;42.660;23.316;2023-11-19T14:19:39;4.57;;;2.50;;
6089;SDS011;3073;42.660;23.316;2023-11-19T14:22:06;3.90;;;2.73;;
6089;SDS011;3073;42.660;23.316;2023-11-19T14:24:33;3.40;;;2.70;;
6089;SDS011;3073;42.660;23.316;2023-11-19T14:27:00;7.17;;;3.00;;
6089;SDS011;3073;42.660;23.316;2023-11-19T14:29:27;4.27;;;2.87;;
6089;SDS011;3073;42.660;23.316;2023-11-19T14:31:55;5.27;;;3.70;;
6089;SDS011;3073;42.660;23.316;2023-11-19T14:34:22;4.70;;;2.97;;
6089;SDS011;3073;42.660;23.316;2023-11-19T14:36:51;9.07;;;3.27;;
6089;SDS011;3073;42.660;23.316;2023-11-19T14:39:19;5.30;;;3.33;;
6089;SDS011;3073;42.660;23.316;2023-11-19T14:41:45;5.30;;;3.70;;
6089;SDS011;3073;42.660;23.316;2023-11-19T14:44:12;4.67;;;3.20;;
6089;SDS011;3073;42.660;23.316;2023-11-19T14:46:39;6.67;;;3.77;;
6089;SDS011;3073;42.660;23.316;2023-11-19T14:49:06;8.13;;;4.53;;
6089;SDS011;3073;42.660;23.316;2023-11-19T14:51:35;4.80;;;3.50;;
6089;SDS011;3073;42.660;23.316;2023-11-19T14:54:03;7.67;;;3.43;;
6089;SDS011;3073;42.660;23.316;2023-11-19T14:56:30;8.33;;;3.90;;
6089;SDS011;3073;42.660;23.316;2023-11-19T14:58:57;5.67;;;3.10;;
6089;SDS011;3073;42.660;23.316;2023-11-19T15:01:25;5.00;;;3.43;;
6089;SDS011;3073;42.660;23.316;2023-11-19T15:03:53;5.50;;;3.50;;
6089;SDS011;3073;42.660;23.316;2023-11-19T15:06:22;5.27;;;3.77;;
6089;SDS011;3073;42.660;23.316;2023-11-19T15:08:50;6.27;;;4.30;;
6089;SDS011;3073;42.660;23.316;2023-11-19T15:11:18;7.80;;;4.73;;
6089;SDS011;3073;42.660;23.316;2023-11-19T15:13:46;6.13;;;4.13;;
6089;SDS011;3073;42.660;23.316;2023-11-19T15:16:13;5.30;;;4.10;;
6089;SDS011;3073;42.660;23.316;2023-11-19T15:18:40;6.10;;;4.33;;